sensor_id;sensor_type;location;lat;lon;timestamp;temperature;humidity
75022;SHT31;63583;49.976;20.182;2022-10-26T00:00:07;12.89;79.49
75022;SHT31;63583;49.976;20.182;2022-10-26T00:02:54;12.90;79.38
75022;SHT31;63583;49.976;20.182;2022-10-26T00:05:21;12.97;79.02
75022;SHT31;63583;49.976;20.182;2022-10-26T00:07:47;12.93;79.16
75022;SHT31;63583;49.976;20.182;2022-10-26T00:10:14;12.96;79.04
75022;SHT31;63583;49.976;20.182;2022-10-26T00:12:39;13.03;78.80
75022;SHT31;63583;49.976;20.182;2022-10-26T00:15:06;13.03;78.73
75022;SHT31;63583;49.976;20.182;2022-10-26T00:17:32;13.06;78.99
75022;SHT31;63583;49.976;20.182;2022-10-26T00:19:58;13.02;78.99
75022;SHT31;63583;49.976;20.182;2022-10-26T00:22:25;13.04;79.06
75022;SHT31;63583;49.976;20.182;2022-10-26T00:24:51;13.00;78.95
75022;SHT31;63583;49.976;20.182;2022-10-26T00:27:17;13.13;78.45
75022;SHT31;63583;49.976;20.182;2022-10-26T00:29:43;13.16;78.40
75022;SHT31;63583;49.976;20.182;2022-10-26T00:32:09;13.19;78.28
75022;SHT31;63583;49.976;20.182;2022-10-26T00:34:35;13.03;78.62
75022;SHT31;63583;49.976;20.182;2022-10-26T00:37:01;13.04;78.53
75022;SHT31;63583;49.976;20.182;2022-10-26T00:39:27;13.02;78.56
75022;SHT31;63583;49.976;20.182;2022-10-26T00:41:52;13.09;78.32
75022;SHT31;63583;49.976;20.182;2022-10-26T00:47:11;13.02;78.38
75022;SHT31;63583;49.976;20.182;2022-10-26T00:49:39;12.90;78.61
75022;SHT31;63583;49.976;20.182;2022-10-26T00:52:06;12.86;78.58
75022;SHT31;63583;49.976;20.182;2022-10-26T00:54:33;12.95;78.57
75022;SHT31;63583;49.976;20.182;2022-10-26T00:56:59;12.82;78.98
75022;SHT31;63583;49.976;20.182;2022-10-26T00:59:25;12.83;78.72
75022;SHT31;63583;49.976;20.182;2022-10-26T01:01:51;12.75;78.97
75022;SHT31;63583;49.976;20.182;2022-10-26T01:04:17;12.93;78.32
75022;SHT31;63583;49.976;20.182;2022-10-26T01:06:43;12.78;78.68
75022;SHT31;63583;49.976;20.182;2022-10-26T01:09:10;12.76;78.92
75022;SHT31;63583;49.976;20.182;2022-10-26T01:11:36;12.76;78.82
75022;SHT31;63583;49.976;20.182;2022-10-26T01:14:05;12.63;79.37
75022;SHT31;63583;49.976;20.182;2022-10-26T01:30:22;12.23;81.10
75022;SHT31;63583;49.976;20.182;2022-10-26T01:33:21;12.13;81.44
75022;SHT31;63583;49.976;20.182;2022-10-26T01:36:00;12.10;81.67
75022;SHT31;63583;49.976;20.182;2022-10-26T01:38:45;12.23;80.97
75022;SHT31;63583;49.976;20.182;2022-10-26T01:41:27;12.18;81.08
75022;SHT31;63583;49.976;20.182;2022-10-26T01:44:02;12.23;80.85
75022;SHT31;63583;49.976;20.182;2022-10-26T01:46:32;12.25;80.71
75022;SHT31;63583;49.976;20.182;2022-10-26T01:49:03;12.21;80.74
75022;SHT31;63583;49.976;20.182;2022-10-26T01:51:31;12.16;81.16
75022;SHT31;63583;49.976;20.182;2022-10-26T01:53:57;12.07;81.31
75022;SHT31;63583;49.976;20.182;2022-10-26T01:56:27;12.04;81.32
75022;SHT31;63583;49.976;20.182;2022-10-26T02:02:14;12.14;80.95
75022;SHT31;63583;49.976;20.182;2022-10-26T02:10:23;11.86;82.08
75022;SHT31;63583;49.976;20.182;2022-10-26T02:12:59;11.75;82.64
75022;SHT31;63583;49.976;20.182;2022-10-26T02:18:52;11.58;83.30
75022;SHT31;63583;49.976;20.182;2022-10-26T02:21:21;11.52;83.57
75022;SHT31;63583;49.976;20.182;2022-10-26T02:23:50;11.48;83.64
75022;SHT31;63583;49.976;20.182;2022-10-26T02:26:19;11.36;83.94
75022;SHT31;63583;49.976;20.182;2022-10-26T02:28:49;11.28;84.30
75022;SHT31;63583;49.976;20.182;2022-10-26T02:31:15;11.39;84.09
75022;SHT31;63583;49.976;20.182;2022-10-26T02:33:46;11.34;84.10
75022;SHT31;63583;49.976;20.182;2022-10-26T02:36:16;11.31;84.03
75022;SHT31;63583;49.976;20.182;2022-10-26T02:38:45;11.29;84.11
75022;SHT31;63583;49.976;20.182;2022-10-26T02:41:13;11.17;84.79
75022;SHT31;63583;49.976;20.182;2022-10-26T02:43:55;11.24;84.75
75022;SHT31;63583;49.976;20.182;2022-10-26T02:46:24;11.15;85.20
75022;SHT31;63583;49.976;20.182;2022-10-26T02:48:52;11.08;85.56
75022;SHT31;63583;49.976;20.182;2022-10-26T02:51:43;11.20;85.13
75022;SHT31;63583;49.976;20.182;2022-10-26T02:54:29;11.15;85.22
75022;SHT31;63583;49.976;20.182;2022-10-26T02:56:59;11.17;85.18
75022;SHT31;63583;49.976;20.182;2022-10-26T02:59:29;11.10;85.35
75022;SHT31;63583;49.976;20.182;2022-10-26T03:01:57;11.14;85.39
75022;SHT31;63583;49.976;20.182;2022-10-26T03:04:30;11.18;85.27
75022;SHT31;63583;49.976;20.182;2022-10-26T03:06:57;11.15;85.30
75022;SHT31;63583;49.976;20.182;2022-10-26T03:09:23;11.17;85.06
75022;SHT31;63583;49.976;20.182;2022-10-26T03:11:48;11.11;85.16
75022;SHT31;63583;49.976;20.182;2022-10-26T03:14:14;11.18;85.32
75022;SHT31;63583;49.976;20.182;2022-10-26T03:16:40;11.17;85.21
75022;SHT31;63583;49.976;20.182;2022-10-26T03:19:06;11.15;85.35
75022;SHT31;63583;49.976;20.182;2022-10-26T03:21:31;11.12;85.34
75022;SHT31;63583;49.976;20.182;2022-10-26T03:23:57;11.12;85.26
75022;SHT31;63583;49.976;20.182;2022-10-26T03:26:23;11.06;85.38
75022;SHT31;63583;49.976;20.182;2022-10-26T03:28:49;11.03;85.35
75022;SHT31;63583;49.976;20.182;2022-10-26T03:31:14;11.01;85.31
75022;SHT31;63583;49.976;20.182;2022-10-26T03:33:40;10.94;85.40
75022;SHT31;63583;49.976;20.182;2022-10-26T03:36:06;10.87;85.77
75022;SHT31;63583;49.976;20.182;2022-10-26T03:38:32;10.84;85.92
75022;SHT31;63583;49.976;20.182;2022-10-26T03:40:57;10.76;86.20
75022;SHT31;63583;49.976;20.182;2022-10-26T03:43:25;10.77;86.31
75022;SHT31;63583;49.976;20.182;2022-10-26T03:45:50;10.80;86.37
75022;SHT31;63583;49.976;20.182;2022-10-26T03:48:17;10.77;86.27
75022;SHT31;63583;49.976;20.182;2022-10-26T03:50:43;10.74;86.34
75022;SHT31;63583;49.976;20.182;2022-10-26T03:53:09;10.76;86.32
75022;SHT31;63583;49.976;20.182;2022-10-26T03:55:34;10.80;86.20
75022;SHT31;63583;49.976;20.182;2022-10-26T03:58:00;10.76;86.18
75022;SHT31;63583;49.976;20.182;2022-10-26T04:00:26;10.66;86.42
75022;SHT31;63583;49.976;20.182;2022-10-26T04:02:57;10.57;86.51
75022;SHT31;63583;49.976;20.182;2022-10-26T04:05:24;10.50;86.74
75022;SHT31;63583;49.976;20.182;2022-10-26T04:08:00;10.50;86.81
75022;SHT31;63583;49.976;20.182;2022-10-26T04:10:29;10.48;86.97
75022;SHT31;63583;49.976;20.182;2022-10-26T04:12:55;10.41;87.02
75022;SHT31;63583;49.976;20.182;2022-10-26T04:15:22;10.38;87.09
75022;SHT31;63583;49.976;20.182;2022-10-26T04:17:54;10.36;87.15
75022;SHT31;63583;49.976;20.182;2022-10-26T04:20:20;10.35;87.32
75022;SHT31;63583;49.976;20.182;2022-10-26T04:22:45;10.35;87.24
75022;SHT31;63583;49.976;20.182;2022-10-26T04:25:11;10.38;87.12
75022;SHT31;63583;49.976;20.182;2022-10-26T04:27:38;10.48;86.90
75022;SHT31;63583;49.976;20.182;2022-10-26T04:30:04;10.56;86.61
75022;SHT31;63583;49.976;20.182;2022-10-26T04:32:32;10.57;86.44
75022;SHT31;63583;49.976;20.182;2022-10-26T04:34:58;10.57;86.21
75022;SHT31;63583;49.976;20.182;2022-10-26T04:37:24;10.59;86.18
75022;SHT31;63583;49.976;20.182;2022-10-26T04:39:50;10.76;85.71
75022;SHT31;63583;49.976;20.182;2022-10-26T04:42:15;10.57;85.72
75022;SHT31;63583;49.976;20.182;2022-10-26T04:44:41;10.46;85.93
75022;SHT31;63583;49.976;20.182;2022-10-26T04:47:07;10.35;86.25
75022;SHT31;63583;49.976;20.182;2022-10-26T04:49:32;10.26;86.71
75022;SHT31;63583;49.976;20.182;2022-10-26T04:51:58;10.18;87.13
75022;SHT31;63583;49.976;20.182;2022-10-26T04:54:24;10.11;87.38
75022;SHT31;63583;49.976;20.182;2022-10-26T04:56:50;10.11;87.79
75022;SHT31;63583;49.976;20.182;2022-10-26T04:59:16;10.02;87.94
75022;SHT31;63583;49.976;20.182;2022-10-26T05:01:41;9.97;88.20
75022;SHT31;63583;49.976;20.182;2022-10-26T05:04:07;9.99;88.12
75022;SHT31;63583;49.976;20.182;2022-10-26T05:06:33;9.95;88.16
75022;SHT31;63583;49.976;20.182;2022-10-26T05:08:59;9.94;88.43
75022;SHT31;63583;49.976;20.182;2022-10-26T05:11:26;9.98;88.52
75022;SHT31;63583;49.976;20.182;2022-10-26T05:13:51;9.99;88.46
75022;SHT31;63583;49.976;20.182;2022-10-26T05:16:17;10.02;88.43
75022;SHT31;63583;49.976;20.182;2022-10-26T05:18:43;9.98;88.55
75022;SHT31;63583;49.976;20.182;2022-10-26T05:21:08;10.01;88.69
75022;SHT31;63583;49.976;20.182;2022-10-26T05:23:34;10.02;88.73
75022;SHT31;63583;49.976;20.182;2022-10-26T05:26:00;10.08;88.80
75022;SHT31;63583;49.976;20.182;2022-10-26T05:28:26;10.12;88.81
75022;SHT31;63583;49.976;20.182;2022-10-26T05:30:51;10.24;88.87
75022;SHT31;63583;49.976;20.182;2022-10-26T05:33:18;10.35;88.53
75022;SHT31;63583;49.976;20.182;2022-10-26T05:35:44;10.46;88.11
75022;SHT31;63583;49.976;20.182;2022-10-26T05:38:16;10.55;87.86
75022;SHT31;63583;49.976;20.182;2022-10-26T05:40:54;10.67;87.06
75022;SHT31;63583;49.976;20.182;2022-10-26T05:43:21;10.74;86.55
75022;SHT31;63583;49.976;20.182;2022-10-26T05:45:49;10.76;86.40
75022;SHT31;63583;49.976;20.182;2022-10-26T05:48:15;10.76;86.24
75022;SHT31;63583;49.976;20.182;2022-10-26T05:50:41;10.66;86.42
75022;SHT31;63583;49.976;20.182;2022-10-26T05:53:07;10.55;86.73
75022;SHT31;63583;49.976;20.182;2022-10-26T05:55:33;10.50;86.81
75022;SHT31;63583;49.976;20.182;2022-10-26T05:57:59;10.48;86.98
75022;SHT31;63583;49.976;20.182;2022-10-26T06:00:27;10.55;86.96
75022;SHT31;63583;49.976;20.182;2022-10-26T06:03:12;10.59;86.88
75022;SHT31;63583;49.976;20.182;2022-10-26T06:05:55;10.57;86.95
75022;SHT31;63583;49.976;20.182;2022-10-26T06:08:24;10.64;86.82
75022;SHT31;63583;49.976;20.182;2022-10-26T06:10:50;10.62;87.13
75022;SHT31;63583;49.976;20.182;2022-10-26T06:13:17;10.63;87.49
75022;SHT31;63583;49.976;20.182;2022-10-26T06:16:18;10.72;87.44
75022;SHT31;63583;49.976;20.182;2022-10-26T06:19:08;10.83;87.09
75022;SHT31;63583;49.976;20.182;2022-10-26T06:21:53;10.96;86.76
75022;SHT31;63583;49.976;20.182;2022-10-26T06:24:58;10.85;86.98
75022;SHT31;63583;49.976;20.182;2022-10-26T06:30:03;10.84;87.33
75022;SHT31;63583;49.976;20.182;2022-10-26T06:32:32;10.85;87.09
75022;SHT31;63583;49.976;20.182;2022-10-26T06:35:18;10.84;86.92
75022;SHT31;63583;49.976;20.182;2022-10-26T06:37:45;10.93;86.71
75022;SHT31;63583;49.976;20.182;2022-10-26T06:40:13;10.97;86.30
75022;SHT31;63583;49.976;20.182;2022-10-26T06:42:40;11.03;86.13
75022;SHT31;63583;49.976;20.182;2022-10-26T06:45:09;11.12;85.84
75022;SHT31;63583;49.976;20.182;2022-10-26T06:47:37;11.21;85.41
75022;SHT31;63583;49.976;20.182;2022-10-26T06:50:30;11.34;85.39
75022;SHT31;63583;49.976;20.182;2022-10-26T06:53:12;11.48;84.96
75022;SHT31;63583;49.976;20.182;2022-10-26T06:55:42;11.61;84.61
75022;SHT31;63583;49.976;20.182;2022-10-26T06:58:13;11.77;84.01
75022;SHT31;63583;49.976;20.182;2022-10-26T07:00:40;11.98;83.22
75022;SHT31;63583;49.976;20.182;2022-10-26T07:03:07;12.14;82.41
75022;SHT31;63583;49.976;20.182;2022-10-26T07:05:34;12.25;82.29
75022;SHT31;63583;49.976;20.182;2022-10-26T07:08:02;12.34;82.45
75022;SHT31;63583;49.976;20.182;2022-10-26T07:10:27;12.54;82.68
75022;SHT31;63583;49.976;20.182;2022-10-26T07:12:53;12.58;82.89
75022;SHT31;63583;49.976;20.182;2022-10-26T07:15:19;12.66;82.90
75022;SHT31;63583;49.976;20.182;2022-10-26T07:18:06;12.69;82.71
75022;SHT31;63583;49.976;20.182;2022-10-26T07:20:53;12.86;82.39
75022;SHT31;63583;49.976;20.182;2022-10-26T07:23:40;12.97;80.97
75022;SHT31;63583;49.976;20.182;2022-10-26T07:26:08;13.02;80.92
75022;SHT31;63583;49.976;20.182;2022-10-26T07:29:15;13.24;81.07
75022;SHT31;63583;49.976;20.182;2022-10-26T07:33:04;13.28;80.27
75022;SHT31;63583;49.976;20.182;2022-10-26T07:39:19;13.46;79.53
75022;SHT31;63583;49.976;20.182;2022-10-26T07:42:30;13.55;79.21
75022;SHT31;63583;49.976;20.182;2022-10-26T07:45:29;13.65;79.09
75022;SHT31;63583;49.976;20.182;2022-10-26T07:48:03;13.74;78.70
75022;SHT31;63583;49.976;20.182;2022-10-26T07:50:28;13.82;78.47
75022;SHT31;63583;49.976;20.182;2022-10-26T07:52:54;13.92;78.04
75022;SHT31;63583;49.976;20.182;2022-10-26T07:55:22;13.95;78.44
75022;SHT31;63583;49.976;20.182;2022-10-26T07:57:48;14.08;78.03
75022;SHT31;63583;49.976;20.182;2022-10-26T08:00:14;14.19;76.95
75022;SHT31;63583;49.976;20.182;2022-10-26T08:02:40;14.32;78.28
75022;SHT31;63583;49.976;20.182;2022-10-26T08:05:05;14.45;77.18
75022;SHT31;63583;49.976;20.182;2022-10-26T08:07:31;14.50;77.50
75022;SHT31;63583;49.976;20.182;2022-10-26T08:09:57;14.47;77.11
75022;SHT31;63583;49.976;20.182;2022-10-26T08:12:23;14.56;77.18
75022;SHT31;63583;49.976;20.182;2022-10-26T08:14:48;14.57;77.10
75022;SHT31;63583;49.976;20.182;2022-10-26T08:17:14;14.61;76.61
75022;SHT31;63583;49.976;20.182;2022-10-26T08:19:40;14.80;75.07
75022;SHT31;63583;49.976;20.182;2022-10-26T08:22:06;14.89;74.84
75022;SHT31;63583;49.976;20.182;2022-10-26T08:24:59;14.92;75.19
75022;SHT31;63583;49.976;20.182;2022-10-26T08:27:39;14.98;75.66
75022;SHT31;63583;49.976;20.182;2022-10-26T08:30:18;14.99;75.72
75022;SHT31;63583;49.976;20.182;2022-10-26T08:32:58;15.06;73.74
75022;SHT31;63583;49.976;20.182;2022-10-26T08:35:25;15.15;74.98
75022;SHT31;63583;49.976;20.182;2022-10-26T08:37:52;15.39;74.11
75022;SHT31;63583;49.976;20.182;2022-10-26T08:40:24;15.38;73.38
75022;SHT31;63583;49.976;20.182;2022-10-26T08:42:56;15.57;72.76
75022;SHT31;63583;49.976;20.182;2022-10-26T08:45:30;15.53;71.80
75022;SHT31;63583;49.976;20.182;2022-10-26T08:48:00;15.63;71.89
75022;SHT31;63583;49.976;20.182;2022-10-26T08:50:32;15.64;71.16
75022;SHT31;63583;49.976;20.182;2022-10-26T08:53:08;15.71;71.61
75022;SHT31;63583;49.976;20.182;2022-10-26T08:55:42;15.84;70.69
75022;SHT31;63583;49.976;20.182;2022-10-26T08:58:14;15.93;70.71
75022;SHT31;63583;49.976;20.182;2022-10-26T09:00:40;15.93;71.00
75022;SHT31;63583;49.976;20.182;2022-10-26T09:03:16;15.97;70.29
75022;SHT31;63583;49.976;20.182;2022-10-26T09:09:01;16.24;69.65
75022;SHT31;63583;49.976;20.182;2022-10-26T09:23:01;16.08;69.04
75022;SHT31;63583;49.976;20.182;2022-10-26T09:25:40;16.16;68.73
75022;SHT31;63583;49.976;20.182;2022-10-26T09:28:35;16.06;69.77
75022;SHT31;63583;49.976;20.182;2022-10-26T09:31:15;16.22;68.54
75022;SHT31;63583;49.976;20.182;2022-10-26T09:33:57;16.24;69.31
75022;SHT31;63583;49.976;20.182;2022-10-26T09:36:36;16.35;67.79
75022;SHT31;63583;49.976;20.182;2022-10-26T09:42:40;16.32;69.25
75022;SHT31;63583;49.976;20.182;2022-10-26T09:45:37;16.45;70.14
75022;SHT31;63583;49.976;20.182;2022-10-26T09:48:30;16.43;68.42
75022;SHT31;63583;49.976;20.182;2022-10-26T09:51:01;16.55;66.28
75022;SHT31;63583;49.976;20.182;2022-10-26T09:53:29;16.53;66.53
75022;SHT31;63583;49.976;20.182;2022-10-26T09:56:04;16.64;65.58
75022;SHT31;63583;49.976;20.182;2022-10-26T09:58:35;16.52;65.87
75022;SHT31;63583;49.976;20.182;2022-10-26T10:01:02;16.53;66.55
75022;SHT31;63583;49.976;20.182;2022-10-26T10:03:31;16.53;67.06
75022;SHT31;63583;49.976;20.182;2022-10-26T10:06:17;16.49;66.94
75022;SHT31;63583;49.976;20.182;2022-10-26T10:09:04;16.74;66.89
75022;SHT31;63583;49.976;20.182;2022-10-26T10:11:50;16.70;66.35
75022;SHT31;63583;49.976;20.182;2022-10-26T10:14:31;16.72;64.72
75022;SHT31;63583;49.976;20.182;2022-10-26T10:17:00;16.66;64.70
75022;SHT31;63583;49.976;20.182;2022-10-26T10:19:30;16.73;65.38
75022;SHT31;63583;49.976;20.182;2022-10-26T10:22:20;16.87;63.60
75022;SHT31;63583;49.976;20.182;2022-10-26T10:24:59;16.80;63.85
75022;SHT31;63583;49.976;20.182;2022-10-26T10:27:26;16.73;65.25
75022;SHT31;63583;49.976;20.182;2022-10-26T10:29:54;16.83;64.97
75022;SHT31;63583;49.976;20.182;2022-10-26T10:32:25;17.00;65.23
75022;SHT31;63583;49.976;20.182;2022-10-26T10:35:00;16.97;64.64
75022;SHT31;63583;49.976;20.182;2022-10-26T10:37:35;16.90;64.88
75022;SHT31;63583;49.976;20.182;2022-10-26T10:40:08;16.99;64.19
75022;SHT31;63583;49.976;20.182;2022-10-26T10:42:40;17.25;63.78
75022;SHT31;63583;49.976;20.182;2022-10-26T10:45:18;17.17;63.49
75022;SHT31;63583;49.976;20.182;2022-10-26T10:48:15;16.85;65.55
75022;SHT31;63583;49.976;20.182;2022-10-26T10:50:59;16.97;64.06
75022;SHT31;63583;49.976;20.182;2022-10-26T10:59:40;16.95;63.87
75022;SHT31;63583;49.976;20.182;2022-10-26T11:07:31;17.11;61.29
75022;SHT31;63583;49.976;20.182;2022-10-26T11:10:02;17.31;61.14
75022;SHT31;63583;49.976;20.182;2022-10-26T11:12:36;17.31;61.70
75022;SHT31;63583;49.976;20.182;2022-10-26T11:15:11;17.34;60.01
75022;SHT31;63583;49.976;20.182;2022-10-26T11:21:35;17.28;60.04
75022;SHT31;63583;49.976;20.182;2022-10-26T11:25:20;17.43;58.22
75022;SHT31;63583;49.976;20.182;2022-10-26T11:27:18;17.36;58.99
75022;SHT31;63583;49.976;20.182;2022-10-26T11:30:04;17.35;58.41
75022;SHT31;63583;49.976;20.182;2022-10-26T11:38:09;17.48;60.49
75022;SHT31;63583;49.976;20.182;2022-10-26T11:43:27;17.63;57.56
75022;SHT31;63583;49.976;20.182;2022-10-26T11:46:02;17.52;57.84
75022;SHT31;63583;49.976;20.182;2022-10-26T11:51:19;17.49;58.04
75022;SHT31;63583;49.976;20.182;2022-10-26T11:53:47;17.46;56.65
75022;SHT31;63583;49.976;20.182;2022-10-26T11:56:26;17.59;56.72
75022;SHT31;63583;49.976;20.182;2022-10-26T11:58:55;17.58;57.32
75022;SHT31;63583;49.976;20.182;2022-10-26T12:01:22;17.61;56.40
75022;SHT31;63583;49.976;20.182;2022-10-26T12:03:50;17.59;56.39
75022;SHT31;63583;49.976;20.182;2022-10-26T12:06:20;17.61;57.52
75022;SHT31;63583;49.976;20.182;2022-10-26T12:08:58;17.62;57.60
75022;SHT31;63583;49.976;20.182;2022-10-26T12:11:49;17.72;55.72
75022;SHT31;63583;49.976;20.182;2022-10-26T12:14:38;17.70;56.87
75022;SHT31;63583;49.976;20.182;2022-10-26T12:17:25;17.82;56.71
75022;SHT31;63583;49.976;20.182;2022-10-26T12:22:31;17.82;55.00
75022;SHT31;63583;49.976;20.182;2022-10-26T12:25:18;17.82;56.69
75022;SHT31;63583;49.976;20.182;2022-10-26T12:37:55;17.83;57.11
75022;SHT31;63583;49.976;20.182;2022-10-26T12:45:45;17.58;57.39
75022;SHT31;63583;49.976;20.182;2022-10-26T12:48:21;17.80;56.49
75022;SHT31;63583;49.976;20.182;2022-10-26T12:50:47;17.83;57.07
75022;SHT31;63583;49.976;20.182;2022-10-26T12:53:14;17.91;57.15
75022;SHT31;63583;49.976;20.182;2022-10-26T13:06:53;17.58;55.66
75022;SHT31;63583;49.976;20.182;2022-10-26T13:09:28;17.55;54.92
75022;SHT31;63583;49.976;20.182;2022-10-26T13:11:56;17.48;55.48
75022;SHT31;63583;49.976;20.182;2022-10-26T13:15:01;17.41;55.78
75022;SHT31;63583;49.976;20.182;2022-10-26T13:17:31;17.42;55.14
75022;SHT31;63583;49.976;20.182;2022-10-26T13:20:00;17.35;56.10
75022;SHT31;63583;49.976;20.182;2022-10-26T13:22:27;17.34;55.40
75022;SHT31;63583;49.976;20.182;2022-10-26T13:25:00;17.29;55.30
75022;SHT31;63583;49.976;20.182;2022-10-26T13:32:36;17.04;56.97
75022;SHT31;63583;49.976;20.182;2022-10-26T13:35:11;17.04;57.62
75022;SHT31;63583;49.976;20.182;2022-10-26T13:37:41;17.25;55.45
75022;SHT31;63583;49.976;20.182;2022-10-26T13:40:11;17.29;55.57
75022;SHT31;63583;49.976;20.182;2022-10-26T13:42:44;17.27;56.02
75022;SHT31;63583;49.976;20.182;2022-10-26T13:45:15;17.08;56.23
75022;SHT31;63583;49.976;20.182;2022-10-26T13:47:51;17.12;55.95
75022;SHT31;63583;49.976;20.182;2022-10-26T13:50:23;17.07;55.93
75022;SHT31;63583;49.976;20.182;2022-10-26T13:53:05;17.07;56.00
75022;SHT31;63583;49.976;20.182;2022-10-26T13:55:36;17.08;55.82
75022;SHT31;63583;49.976;20.182;2022-10-26T13:58:27;16.97;56.54
75022;SHT31;63583;49.976;20.182;2022-10-26T14:01:18;16.83;56.35
75022;SHT31;63583;49.976;20.182;2022-10-26T14:03:46;16.79;56.54
75022;SHT31;63583;49.976;20.182;2022-10-26T14:06:23;16.63;57.68
75022;SHT31;63583;49.976;20.182;2022-10-26T14:08:52;16.55;57.95
75022;SHT31;63583;49.976;20.182;2022-10-26T14:11:21;16.62;56.57
75022;SHT31;63583;49.976;20.182;2022-10-26T14:13:50;16.59;57.03
75022;SHT31;63583;49.976;20.182;2022-10-26T14:16:17;16.51;57.32
75022;SHT31;63583;49.976;20.182;2022-10-26T14:18:47;16.51;57.96
75022;SHT31;63583;49.976;20.182;2022-10-26T14:21:19;16.29;57.81
75022;SHT31;63583;49.976;20.182;2022-10-26T14:26:36;16.39;57.11
75022;SHT31;63583;49.976;20.182;2022-10-26T14:29:03;16.41;57.61
75022;SHT31;63583;49.976;20.182;2022-10-26T14:31:32;16.26;58.12
75022;SHT31;63583;49.976;20.182;2022-10-26T14:34:02;16.30;58.33
75022;SHT31;63583;49.976;20.182;2022-10-26T14:36:36;16.15;59.27
75022;SHT31;63583;49.976;20.182;2022-10-26T14:39:06;16.05;59.48
75022;SHT31;63583;49.976;20.182;2022-10-26T14:41:34;15.97;59.88
75022;SHT31;63583;49.976;20.182;2022-10-26T14:44:01;15.83;60.45
75022;SHT31;63583;49.976;20.182;2022-10-26T14:46:33;15.71;60.91
75022;SHT31;63583;49.976;20.182;2022-10-26T14:49:00;15.63;61.24
75022;SHT31;63583;49.976;20.182;2022-10-26T14:51:29;15.60;61.32
75022;SHT31;63583;49.976;20.182;2022-10-26T14:53:58;15.54;61.53
75022;SHT31;63583;49.976;20.182;2022-10-26T14:56:38;15.51;61.63
75022;SHT31;63583;49.976;20.182;2022-10-26T15:04:35;15.42;62.54
75022;SHT31;63583;49.976;20.182;2022-10-26T15:07:17;15.38;62.45
75022;SHT31;63583;49.976;20.182;2022-10-26T15:09:52;15.25;62.89
75022;SHT31;63583;49.976;20.182;2022-10-26T15:14:44;15.12;62.88
75022;SHT31;63583;49.976;20.182;2022-10-26T15:17:22;15.19;62.78
75022;SHT31;63583;49.976;20.182;2022-10-26T15:19:50;15.18;62.97
75022;SHT31;63583;49.976;20.182;2022-10-26T15:22:22;15.22;62.83
75022;SHT31;63583;49.976;20.182;2022-10-26T15:24:53;15.29;62.71
75022;SHT31;63583;49.976;20.182;2022-10-26T15:27:21;15.26;62.94
75022;SHT31;63583;49.976;20.182;2022-10-26T15:30:08;15.32;63.09
75022;SHT31;63583;49.976;20.182;2022-10-26T15:32:34;15.22;63.68
75022;SHT31;63583;49.976;20.182;2022-10-26T15:37:47;15.02;64.61
75022;SHT31;63583;49.976;20.182;2022-10-26T15:40:13;14.93;65.03
75022;SHT31;63583;49.976;20.182;2022-10-26T15:42:40;14.85;65.42
75022;SHT31;63583;49.976;20.182;2022-10-26T15:45:19;14.72;65.59
75022;SHT31;63583;49.976;20.182;2022-10-26T15:47:45;14.65;66.20
75022;SHT31;63583;49.976;20.182;2022-10-26T15:50:13;14.53;66.41
75022;SHT31;63583;49.976;20.182;2022-10-26T15:52:39;14.44;66.81
75022;SHT31;63583;49.976;20.182;2022-10-26T15:55:05;14.45;67.52
75022;SHT31;63583;49.976;20.182;2022-10-26T15:57:30;14.41;68.06
75022;SHT31;63583;49.976;20.182;2022-10-26T15:59:56;14.33;68.27
75022;SHT31;63583;49.976;20.182;2022-10-26T16:02:22;14.26;68.19
75022;SHT31;63583;49.976;20.182;2022-10-26T16:04:48;14.06;68.65
75022;SHT31;63583;49.976;20.182;2022-10-26T16:07:14;13.86;69.08
75022;SHT31;63583;49.976;20.182;2022-10-26T16:09:41;13.74;69.57
75022;SHT31;63583;49.976;20.182;2022-10-26T16:12:09;13.61;69.63
75022;SHT31;63583;49.976;20.182;2022-10-26T16:14:36;13.53;69.80
75022;SHT31;63583;49.976;20.182;2022-10-26T16:17:04;13.48;69.89
75022;SHT31;63583;49.976;20.182;2022-10-26T16:19:30;13.41;70.08
75022;SHT31;63583;49.976;20.182;2022-10-26T16:21:56;13.33;70.31
75022;SHT31;63583;49.976;20.182;2022-10-26T16:24:21;13.27;70.65
75022;SHT31;63583;49.976;20.182;2022-10-26T16:26:47;13.23;70.64
75022;SHT31;63583;49.976;20.182;2022-10-26T16:29:13;13.16;70.98
75022;SHT31;63583;49.976;20.182;2022-10-26T16:31:39;13.13;71.05
75022;SHT31;63583;49.976;20.182;2022-10-26T16:34:04;13.11;71.18
75022;SHT31;63583;49.976;20.182;2022-10-26T16:36:30;13.10;71.42
75022;SHT31;63583;49.976;20.182;2022-10-26T16:38:59;13.06;71.25
75022;SHT31;63583;49.976;20.182;2022-10-26T16:41:25;13.03;71.23
75022;SHT31;63583;49.976;20.182;2022-10-26T16:43:51;13.04;71.17
75022;SHT31;63583;49.976;20.182;2022-10-26T16:46:18;13.02;71.22
75022;SHT31;63583;49.976;20.182;2022-10-26T16:48:47;13.02;71.10
75022;SHT31;63583;49.976;20.182;2022-10-26T16:51:17;13.06;71.08
75022;SHT31;63583;49.976;20.182;2022-10-26T16:53:46;13.20;70.71
75022;SHT31;63583;49.976;20.182;2022-10-26T16:56:14;13.27;70.57
75022;SHT31;63583;49.976;20.182;2022-10-26T16:58:41;13.41;70.49
75022;SHT31;63583;49.976;20.182;2022-10-26T17:01:16;13.27;70.81
75022;SHT31;63583;49.976;20.182;2022-10-26T17:03:43;13.14;71.05
75022;SHT31;63583;49.976;20.182;2022-10-26T17:06:10;12.99;71.52
75022;SHT31;63583;49.976;20.182;2022-10-26T17:08:35;12.89;71.63
75022;SHT31;63583;49.976;20.182;2022-10-26T17:11:03;12.88;71.72
75022;SHT31;63583;49.976;20.182;2022-10-26T17:13:30;12.88;71.79
75022;SHT31;63583;49.976;20.182;2022-10-26T17:16:22;12.93;71.79
75022;SHT31;63583;49.976;20.182;2022-10-26T17:18:48;12.92;72.01
75022;SHT31;63583;49.976;20.182;2022-10-26T17:21:16;12.95;72.05
75022;SHT31;63583;49.976;20.182;2022-10-26T17:23:42;12.90;72.31
75022;SHT31;63583;49.976;20.182;2022-10-26T17:26:11;12.90;72.38
75022;SHT31;63583;49.976;20.182;2022-10-26T17:28:37;12.90;72.41
75022;SHT31;63583;49.976;20.182;2022-10-26T17:31:05;13.03;72.14
75022;SHT31;63583;49.976;20.182;2022-10-26T17:33:35;13.07;72.15
75022;SHT31;63583;49.976;20.182;2022-10-26T17:36:03;12.96;72.63
75022;SHT31;63583;49.976;20.182;2022-10-26T17:38:31;12.92;72.66
75022;SHT31;63583;49.976;20.182;2022-10-26T17:41:17;12.92;72.61
75022;SHT31;63583;49.976;20.182;2022-10-26T17:43:46;12.89;72.46
75022;SHT31;63583;49.976;20.182;2022-10-26T17:46:13;12.83;72.57
75022;SHT31;63583;49.976;20.182;2022-10-26T17:48:39;12.79;72.63
75022;SHT31;63583;49.976;20.182;2022-10-26T17:51:09;12.65;73.41